Main page
METAR-TAF:

METAR-TAF

Airports :

Maputo, Mozambique

Maputo International Airport

latitude: 25-55S, longitude: 032-34E, elevation: 39 m

Current weather observation

The report was made 1 hour and 3 minutes ago, at 11:00 UTC
Wind 5 kt from the West/Northwest, varying between West and North/Northwest
Temperature 25°C
Humidity 47%
Pressure 1025 hPa
Visibility 10 km or more
Few clouds at a height of 2000 ft

METAR: FQMA 261100Z 29005KT 270V340 9999 FEW020 25/13 Q1025 NOSIG

Time: 14:03 (12:03 UTC)


TAF: missing

Weather observations and forecasts of more than 4000 airports (METAR and TAF reports).

The available stations are represented by yellow and red dots on the map.

Hover mouse over dot to see the name of the station.

Then click to see weather observations and forecasts.

To change the map : click on the green buttons with a black cross to zoom in, on the green button with a dash to zoom out, or on the green arrows for adjacent maps.


METAR-TAF: